sensor_id;sensor_type;location;lat;lon;timestamp;P1;durP1;ratioP1;P2;durP2;ratioP2
23561;SDS011;11959;49.418;8.728;2023-05-28T00:00:09;6.28;;;3.33;;
23561;SDS011;11959;49.418;8.728;2023-05-28T00:02:36;8.10;;;3.10;;
23561;SDS011;11959;49.418;8.728;2023-05-28T00:05:02;5.90;;;3.33;;
23561;SDS011;11959;49.418;8.728;2023-05-28T00:07:31;6.88;;;3.13;;
23561;SDS011;11959;49.418;8.728;2023-05-28T00:09:57;6.75;;;3.28;;
23561;SDS011;11959;49.418;8.728;2023-05-28T00:12:23;5.90;;;3.28;;
23561;SDS011;11959;49.418;8.728;2023-05-28T00:14:49;7.07;;;3.30;;
23561;SDS011;11959;49.418;8.728;2023-05-28T00:17:15;6.97;;;3.28;;
23561;SDS011;11959;49.418;8.728;2023-05-28T00:19:41;6.85;;;3.30;;
23561;SDS011;11959;49.418;8.728;2023-05-28T00:22:08;6.38;;;3.45;;
23561;SDS011;11959;49.418;8.728;2023-05-28T00:24:34;7.10;;;3.40;;
23561;SDS011;11959;49.418;8.728;2023-05-28T00:27:00;6.75;;;3.40;;
23561;SDS011;11959;49.418;8.728;2023-05-28T00:29:26;6.43;;;3.45;;
23561;SDS011;11959;49.418;8.728;2023-05-28T00:31:55;7.45;;;3.22;;
23561;SDS011;11959;49.418;8.728;2023-05-28T00:34:22;7.60;;;3.40;;
23561;SDS011;11959;49.418;8.728;2023-05-28T00:36:48;8.40;;;3.75;;
23561;SDS011;11959;49.418;8.728;2023-05-28T00:39:14;7.30;;;3.58;;
23561;SDS011;11959;49.418;8.728;2023-05-28T00:41:41;6.65;;;3.28;;
23561;SDS011;11959;49.418;8.728;2023-05-28T00:44:06;8.43;;;3.42;;
23561;SDS011;11959;49.418;8.728;2023-05-28T00:46:34;7.43;;;3.53;;
23561;SDS011;11959;49.418;8.728;2023-05-28T00:49:00;7.57;;;3.60;;
23561;SDS011;11959;49.418;8.728;2023-05-28T00:51:26;5.95;;;3.22;;
23561;SDS011;11959;49.418;8.728;2023-05-28T00:53:52;5.68;;;3.78;;
23561;SDS011;11959;49.418;8.728;2023-05-28T00:56:18;7.85;;;3.58;;
23561;SDS011;11959;49.418;8.728;2023-05-28T00:58:44;9.88;;;3.83;;
23561;SDS011;11959;49.418;8.728;2023-05-28T01:01:13;7.95;;;3.35;;
23561;SDS011;11959;49.418;8.728;2023-05-28T01:03:39;7.90;;;3.70;;
23561;SDS011;11959;49.418;8.728;2023-05-28T01:06:08;8.13;;;3.78;;
23561;SDS011;11959;49.418;8.728;2023-05-28T01:08:37;5.90;;;3.00;;
23561;SDS011;11959;49.418;8.728;2023-05-28T01:11:04;7.28;;;3.40;;
23561;SDS011;11959;49.418;8.728;2023-05-28T01:13:32;8.88;;;3.28;;
23561;SDS011;11959;49.418;8.728;2023-05-28T01:15:58;7.47;;;3.17;;
23561;SDS011;11959;49.418;8.728;2023-05-28T01:18:25;8.35;;;3.88;;
23561;SDS011;11959;49.418;8.728;2023-05-28T01:20:52;6.65;;;3.25;;
23561;SDS011;11959;49.418;8.728;2023-05-28T01:23:18;5.72;;;3.22;;
23561;SDS011;11959;49.418;8.728;2023-05-28T01:25:49;8.80;;;3.40;;
23561;SDS011;11959;49.418;8.728;2023-05-28T01:28:16;6.18;;;3.25;;
23561;SDS011;11959;49.418;8.728;2023-05-28T01:30:42;6.18;;;3.03;;
23561;SDS011;11959;49.418;8.728;2023-05-28T01:33:11;7.63;;;3.30;;
23561;SDS011;11959;49.418;8.728;2023-05-28T01:35:37;6.28;;;3.25;;
23561;SDS011;11959;49.418;8.728;2023-05-28T01:38:04;6.97;;;3.47;;
23561;SDS011;11959;49.418;8.728;2023-05-28T01:40:31;7.05;;;3.45;;
23561;SDS011;11959;49.418;8.728;2023-05-28T01:42:58;6.47;;;3.33;;
23561;SDS011;11959;49.418;8.728;2023-05-28T01:45:25;5.75;;;3.13;;
23561;SDS011;11959;49.418;8.728;2023-05-28T01:47:53;4.57;;;3.00;;
23561;SDS011;11959;49.418;8.728;2023-05-28T01:50:19;4.88;;;2.85;;
23561;SDS011;11959;49.418;8.728;2023-05-28T01:52:45;7.35;;;3.80;;
23561;SDS011;11959;49.418;8.728;2023-05-28T01:55:11;7.25;;;3.47;;
23561;SDS011;11959;49.418;8.728;2023-05-28T01:57:38;8.32;;;3.65;;
23561;SDS011;11959;49.418;8.728;2023-05-28T02:00:05;7.93;;;3.70;;
23561;SDS011;11959;49.418;8.728;2023-05-28T02:02:32;6.38;;;3.10;;
23561;SDS011;11959;49.418;8.728;2023-05-28T02:04:58;5.20;;;3.15;;
23561;SDS011;11959;49.418;8.728;2023-05-28T02:07:23;6.57;;;3.30;;
23561;SDS011;11959;49.418;8.728;2023-05-28T02:09:49;7.68;;;3.25;;
23561;SDS011;11959;49.418;8.728;2023-05-28T02:12:15;7.68;;;3.83;;
23561;SDS011;11959;49.418;8.728;2023-05-28T02:14:41;7.47;;;3.35;;
23561;SDS011;11959;49.418;8.728;2023-05-28T02:17:07;5.28;;;3.38;;
23561;SDS011;11959;49.418;8.728;2023-05-28T02:19:34;6.00;;;3.15;;
23561;SDS011;11959;49.418;8.728;2023-05-28T02:22:00;7.32;;;3.72;;
23561;SDS011;11959;49.418;8.728;2023-05-28T02:24:26;7.90;;;3.53;;
23561;SDS011;11959;49.418;8.728;2023-05-28T02:26:52;7.60;;;3.83;;
23561;SDS011;11959;49.418;8.728;2023-05-28T02:29:18;6.70;;;3.35;;
23561;SDS011;11959;49.418;8.728;2023-05-28T02:31:44;6.28;;;3.10;;
23561;SDS011;11959;49.418;8.728;2023-05-28T02:34:10;6.80;;;3.45;;
23561;SDS011;11959;49.418;8.728;2023-05-28T02:36:35;6.60;;;3.63;;
23561;SDS011;11959;49.418;8.728;2023-05-28T02:39:02;6.60;;;3.78;;
23561;SDS011;11959;49.418;8.728;2023-05-28T02:41:28;8.35;;;3.88;;
23561;SDS011;11959;49.418;8.728;2023-05-28T02:43:54;7.50;;;3.25;;
23561;SDS011;11959;49.418;8.728;2023-05-28T02:46:19;6.75;;;3.30;;
23561;SDS011;11959;49.418;8.728;2023-05-28T02:48:45;6.10;;;3.10;;
23561;SDS011;11959;49.418;8.728;2023-05-28T02:51:11;8.45;;;3.50;;
23561;SDS011;11959;49.418;8.728;2023-05-28T02:53:36;5.20;;;3.67;;
23561;SDS011;11959;49.418;8.728;2023-05-28T02:56:02;10.07;;;3.58;;
23561;SDS011;11959;49.418;8.728;2023-05-28T02:58:29;7.13;;;3.38;;
23561;SDS011;11959;49.418;8.728;2023-05-28T03:00:55;7.28;;;3.67;;
23561;SDS011;11959;49.418;8.728;2023-05-28T03:03:21;6.22;;;3.15;;
23561;SDS011;11959;49.418;8.728;2023-05-28T03:05:47;8.55;;;3.33;;
23561;SDS011;11959;49.418;8.728;2023-05-28T03:08:14;6.72;;;3.75;;
23561;SDS011;11959;49.418;8.728;2023-05-28T03:10:39;7.63;;;3.45;;
23561;SDS011;11959;49.418;8.728;2023-05-28T03:13:05;6.45;;;3.60;;
23561;SDS011;11959;49.418;8.728;2023-05-28T03:15:31;6.45;;;3.40;;
23561;SDS011;11959;49.418;8.728;2023-05-28T03:17:56;9.85;;;3.65;;
23561;SDS011;11959;49.418;8.728;2023-05-28T03:20:22;8.02;;;3.45;;
23561;SDS011;11959;49.418;8.728;2023-05-28T03:22:48;6.47;;;3.63;;
23561;SDS011;11959;49.418;8.728;2023-05-28T03:25:19;7.78;;;3.80;;
23561;SDS011;11959;49.418;8.728;2023-05-28T03:27:45;7.10;;;3.53;;
23561;SDS011;11959;49.418;8.728;2023-05-28T03:30:11;7.53;;;3.53;;
23561;SDS011;11959;49.418;8.728;2023-05-28T03:32:37;6.95;;;3.50;;
23561;SDS011;11959;49.418;8.728;2023-05-28T03:35:03;6.32;;;3.70;;
23561;SDS011;11959;49.418;8.728;2023-05-28T03:37:28;8.48;;;3.67;;
23561;SDS011;11959;49.418;8.728;2023-05-28T03:39:54;6.30;;;3.78;;
23561;SDS011;11959;49.418;8.728;2023-05-28T03:42:20;7.85;;;4.00;;
23561;SDS011;11959;49.418;8.728;2023-05-28T03:44:46;5.72;;;3.33;;
23561;SDS011;11959;49.418;8.728;2023-05-28T03:47:11;6.55;;;3.60;;
23561;SDS011;11959;49.418;8.728;2023-05-28T03:49:37;6.53;;;3.42;;
23561;SDS011;11959;49.418;8.728;2023-05-28T03:52:05;6.18;;;3.45;;
23561;SDS011;11959;49.418;8.728;2023-05-28T03:54:31;9.23;;;4.30;;
23561;SDS011;11959;49.418;8.728;2023-05-28T03:56:57;7.88;;;3.88;;
23561;SDS011;11959;49.418;8.728;2023-05-28T03:59:23;6.40;;;3.63;;
23561;SDS011;11959;49.418;8.728;2023-05-28T04:01:48;8.45;;;3.90;;
23561;SDS011;11959;49.418;8.728;2023-05-28T04:04:14;5.95;;;3.47;;
23561;SDS011;11959;49.418;8.728;2023-05-28T04:06:40;8.02;;;4.18;;
23561;SDS011;11959;49.418;8.728;2023-05-28T04:09:06;6.43;;;3.70;;
23561;SDS011;11959;49.418;8.728;2023-05-28T04:11:33;8.90;;;4.00;;
23561;SDS011;11959;49.418;8.728;2023-05-28T04:14:00;8.32;;;3.92;;
23561;SDS011;11959;49.418;8.728;2023-05-28T04:16:26;7.07;;;3.80;;
23561;SDS011;11959;49.418;8.728;2023-05-28T04:18:52;7.15;;;3.83;;
23561;SDS011;11959;49.418;8.728;2023-05-28T04:21:18;7.53;;;4.00;;
23561;SDS011;11959;49.418;8.728;2023-05-28T04:23:45;11.02;;;4.25;;
23561;SDS011;11959;49.418;8.728;2023-05-28T04:26:10;7.80;;;3.78;;
23561;SDS011;11959;49.418;8.728;2023-05-28T04:28:36;8.38;;;3.83;;
23561;SDS011;11959;49.418;8.728;2023-05-28T04:31:02;7.63;;;4.10;;
23561;SDS011;11959;49.418;8.728;2023-05-28T04:33:28;9.00;;;4.35;;
23561;SDS011;11959;49.418;8.728;2023-05-28T04:35:54;10.05;;;4.55;;
23561;SDS011;11959;49.418;8.728;2023-05-28T04:38:21;7.57;;;4.10;;
23561;SDS011;11959;49.418;8.728;2023-05-28T04:40:46;7.32;;;3.80;;
23561;SDS011;11959;49.418;8.728;2023-05-28T04:43:14;6.93;;;3.65;;
23561;SDS011;11959;49.418;8.728;2023-05-28T04:45:41;6.70;;;4.03;;
23561;SDS011;11959;49.418;8.728;2023-05-28T04:48:06;8.02;;;3.75;;
23561;SDS011;11959;49.418;8.728;2023-05-28T04:50:32;9.10;;;4.22;;
23561;SDS011;11959;49.418;8.728;2023-05-28T04:52:58;6.30;;;3.85;;
23561;SDS011;11959;49.418;8.728;2023-05-28T04:55:24;8.65;;;3.90;;
23561;SDS011;11959;49.418;8.728;2023-05-28T04:57:49;7.85;;;3.90;;
23561;SDS011;11959;49.418;8.728;2023-05-28T05:00:16;7.65;;;4.43;;
23561;SDS011;11959;49.418;8.728;2023-05-28T05:02:41;9.40;;;4.13;;
23561;SDS011;11959;49.418;8.728;2023-05-28T05:05:07;9.50;;;4.25;;
23561;SDS011;11959;49.418;8.728;2023-05-28T05:07:37;7.90;;;4.05;;
23561;SDS011;11959;49.418;8.728;2023-05-28T05:10:07;7.68;;;3.97;;
23561;SDS011;11959;49.418;8.728;2023-05-28T05:12:33;8.65;;;3.83;;
23561;SDS011;11959;49.418;8.728;2023-05-28T05:14:59;7.20;;;3.72;;
23561;SDS011;11959;49.418;8.728;2023-05-28T05:17:25;6.88;;;4.03;;
23561;SDS011;11959;49.418;8.728;2023-05-28T05:19:51;7.32;;;4.35;;
23561;SDS011;11959;49.418;8.728;2023-05-28T05:22:17;7.68;;;3.70;;
23561;SDS011;11959;49.418;8.728;2023-05-28T05:24:43;6.82;;;3.65;;
23561;SDS011;11959;49.418;8.728;2023-05-28T05:27:11;7.85;;;4.03;;
23561;SDS011;11959;49.418;8.728;2023-05-28T05:29:37;7.78;;;4.45;;
23561;SDS011;11959;49.418;8.728;2023-05-28T05:32:02;8.00;;;4.00;;
23561;SDS011;11959;49.418;8.728;2023-05-28T05:34:28;8.32;;;4.07;;
23561;SDS011;11959;49.418;8.728;2023-05-28T05:36:54;8.07;;;4.35;;
23561;SDS011;11959;49.418;8.728;2023-05-28T05:39:19;5.55;;;3.90;;
23561;SDS011;11959;49.418;8.728;2023-05-28T05:41:45;7.45;;;3.85;;
23561;SDS011;11959;49.418;8.728;2023-05-28T05:44:10;8.00;;;3.85;;
23561;SDS011;11959;49.418;8.728;2023-05-28T05:46:36;7.68;;;4.00;;
23561;SDS011;11959;49.418;8.728;2023-05-28T05:49:02;7.53;;;4.28;;
23561;SDS011;11959;49.418;8.728;2023-05-28T05:51:27;8.15;;;3.70;;
23561;SDS011;11959;49.418;8.728;2023-05-28T05:53:53;7.20;;;4.10;;
23561;SDS011;11959;49.418;8.728;2023-05-28T05:56:18;7.97;;;4.30;;
23561;SDS011;11959;49.418;8.728;2023-05-28T05:58:44;5.57;;;3.58;;
23561;SDS011;11959;49.418;8.728;2023-05-28T06:01:10;6.85;;;3.85;;
23561;SDS011;11959;49.418;8.728;2023-05-28T06:03:36;8.05;;;4.13;;
23561;SDS011;11959;49.418;8.728;2023-05-28T06:06:01;9.05;;;4.57;;
23561;SDS011;11959;49.418;8.728;2023-05-28T06:08:27;5.45;;;3.63;;
23561;SDS011;11959;49.418;8.728;2023-05-28T06:10:53;7.75;;;4.07;;
23561;SDS011;11959;49.418;8.728;2023-05-28T06:13:19;6.70;;;3.65;;
23561;SDS011;11959;49.418;8.728;2023-05-28T06:15:45;8.32;;;4.28;;
23561;SDS011;11959;49.418;8.728;2023-05-28T06:18:11;9.15;;;4.15;;
23561;SDS011;11959;49.418;8.728;2023-05-28T06:20:37;6.63;;;3.53;;
23561;SDS011;11959;49.418;8.728;2023-05-28T06:23:03;8.40;;;3.60;;
23561;SDS011;11959;49.418;8.728;2023-05-28T06:25:28;7.80;;;4.10;;
23561;SDS011;11959;49.418;8.728;2023-05-28T06:27:54;6.53;;;3.72;;
23561;SDS011;11959;49.418;8.728;2023-05-28T06:30:20;5.82;;;4.10;;
23561;SDS011;11959;49.418;8.728;2023-05-28T06:32:46;8.15;;;4.00;;
23561;SDS011;11959;49.418;8.728;2023-05-28T06:35:12;9.73;;;4.03;;
23561;SDS011;11959;49.418;8.728;2023-05-28T06:37:38;7.55;;;3.90;;
23561;SDS011;11959;49.418;8.728;2023-05-28T06:40:04;7.80;;;3.97;;
23561;SDS011;11959;49.418;8.728;2023-05-28T06:42:31;7.50;;;4.07;;
23561;SDS011;11959;49.418;8.728;2023-05-28T06:44:57;7.85;;;4.55;;
23561;SDS011;11959;49.418;8.728;2023-05-28T06:47:24;6.63;;;3.50;;
23561;SDS011;11959;49.418;8.728;2023-05-28T06:49:50;8.40;;;4.50;;
23561;SDS011;11959;49.418;8.728;2023-05-28T06:52:16;8.02;;;3.95;;
23561;SDS011;11959;49.418;8.728;2023-05-28T06:54:44;11.00;;;4.70;;
23561;SDS011;11959;49.418;8.728;2023-05-28T06:57:09;8.93;;;4.47;;
23561;SDS011;11959;49.418;8.728;2023-05-28T06:59:35;5.25;;;3.72;;
23561;SDS011;11959;49.418;8.728;2023-05-28T07:02:01;7.18;;;4.22;;
23561;SDS011;11959;49.418;8.728;2023-05-28T07:04:26;6.80;;;3.88;;
23561;SDS011;11959;49.418;8.728;2023-05-28T07:06:53;6.88;;;4.13;;
23561;SDS011;11959;49.418;8.728;2023-05-28T07:09:18;6.63;;;3.88;;
23561;SDS011;11959;49.418;8.728;2023-05-28T07:11:44;7.38;;;4.40;;
23561;SDS011;11959;49.418;8.728;2023-05-28T07:14:10;7.55;;;3.95;;
23561;SDS011;11959;49.418;8.728;2023-05-28T07:16:36;7.85;;;4.07;;
23561;SDS011;11959;49.418;8.728;2023-05-28T07:19:02;8.80;;;4.80;;
23561;SDS011;11959;49.418;8.728;2023-05-28T07:21:27;6.88;;;4.03;;
23561;SDS011;11959;49.418;8.728;2023-05-28T07:23:53;7.65;;;4.50;;
23561;SDS011;11959;49.418;8.728;2023-05-28T07:26:18;7.70;;;3.95;;
23561;SDS011;11959;49.418;8.728;2023-05-28T07:28:45;9.10;;;4.72;;
23561;SDS011;11959;49.418;8.728;2023-05-28T07:31:10;8.75;;;4.15;;
23561;SDS011;11959;49.418;8.728;2023-05-28T07:33:36;6.97;;;4.18;;
23561;SDS011;11959;49.418;8.728;2023-05-28T07:36:02;7.32;;;4.10;;
23561;SDS011;11959;49.418;8.728;2023-05-28T07:38:28;9.98;;;4.18;;
23561;SDS011;11959;49.418;8.728;2023-05-28T07:40:53;9.15;;;4.57;;
23561;SDS011;11959;49.418;8.728;2023-05-28T07:43:19;8.27;;;4.47;;
23561;SDS011;11959;49.418;8.728;2023-05-28T07:45:45;8.10;;;4.50;;
23561;SDS011;11959;49.418;8.728;2023-05-28T07:48:10;7.43;;;4.00;;
23561;SDS011;11959;49.418;8.728;2023-05-28T07:50:37;7.50;;;4.10;;
23561;SDS011;11959;49.418;8.728;2023-05-28T07:53:03;8.90;;;4.15;;
23561;SDS011;11959;49.418;8.728;2023-05-28T07:55:29;7.53;;;4.40;;
23561;SDS011;11959;49.418;8.728;2023-05-28T07:57:56;7.43;;;3.67;;
23561;SDS011;11959;49.418;8.728;2023-05-28T08:00:24;7.07;;;3.88;;
23561;SDS011;11959;49.418;8.728;2023-05-28T08:02:51;6.95;;;4.47;;
23561;SDS011;11959;49.418;8.728;2023-05-28T08:05:18;6.35;;;4.15;;
23561;SDS011;11959;49.418;8.728;2023-05-28T08:07:44;8.40;;;4.60;;
23561;SDS011;11959;49.418;8.728;2023-05-28T08:10:10;8.35;;;4.38;;
23561;SDS011;11959;49.418;8.728;2023-05-28T08:12:36;7.72;;;4.20;;
23561;SDS011;11959;49.418;8.728;2023-05-28T08:15:02;10.88;;;3.67;;
23561;SDS011;11959;49.418;8.728;2023-05-28T08:17:31;9.15;;;4.20;;
23561;SDS011;11959;49.418;8.728;2023-05-28T08:19:57;8.45;;;4.35;;
23561;SDS011;11959;49.418;8.728;2023-05-28T08:22:23;7.70;;;4.30;;
23561;SDS011;11959;49.418;8.728;2023-05-28T08:24:48;6.28;;;3.63;;
23561;SDS011;11959;49.418;8.728;2023-05-28T08:27:14;7.03;;;4.05;;
23561;SDS011;11959;49.418;8.728;2023-05-28T08:29:40;8.25;;;4.45;;
23561;SDS011;11959;49.418;8.728;2023-05-28T08:32:05;8.15;;;3.72;;
23561;SDS011;11959;49.418;8.728;2023-05-28T08:34:31;9.20;;;4.38;;
23561;SDS011;11959;49.418;8.728;2023-05-28T08:37:00;7.40;;;4.47;;
23561;SDS011;11959;49.418;8.728;2023-05-28T08:39:26;9.13;;;4.25;;
23561;SDS011;11959;49.418;8.728;2023-05-28T08:41:52;8.68;;;3.88;;
23561;SDS011;11959;49.418;8.728;2023-05-28T08:44:18;11.25;;;4.72;;
23561;SDS011;11959;49.418;8.728;2023-05-28T08:46:44;7.70;;;4.20;;
23561;SDS011;11959;49.418;8.728;2023-05-28T08:49:11;6.72;;;4.15;;
23561;SDS011;11959;49.418;8.728;2023-05-28T08:51:39;5.95;;;3.83;;
23561;SDS011;11959;49.418;8.728;2023-05-28T08:54:07;7.78;;;4.53;;
23561;SDS011;11959;49.418;8.728;2023-05-28T08:56:33;8.85;;;4.35;;
23561;SDS011;11959;49.418;8.728;2023-05-28T08:59:00;9.30;;;4.18;;
23561;SDS011;11959;49.418;8.728;2023-05-28T09:01:27;7.50;;;3.88;;
23561;SDS011;11959;49.418;8.728;2023-05-28T09:03:52;8.52;;;4.22;;
23561;SDS011;11959;49.418;8.728;2023-05-28T09:06:18;7.28;;;4.22;;
23561;SDS011;11959;49.418;8.728;2023-05-28T09:08:49;8.25;;;4.35;;
23561;SDS011;11959;49.418;8.728;2023-05-28T09:11:15;8.80;;;4.00;;
23561;SDS011;11959;49.418;8.728;2023-05-28T09:13:44;8.05;;;4.55;;
23561;SDS011;11959;49.418;8.728;2023-05-28T09:16:11;8.25;;;4.38;;
23561;SDS011;11959;49.418;8.728;2023-05-28T09:18:45;8.25;;;4.65;;
23561;SDS011;11959;49.418;8.728;2023-05-28T09:21:13;8.18;;;3.95;;
23561;SDS011;11959;49.418;8.728;2023-05-28T09:23:39;7.65;;;4.72;;
23561;SDS011;11959;49.418;8.728;2023-05-28T09:26:11;8.18;;;4.90;;
23561;SDS011;11959;49.418;8.728;2023-05-28T09:28:40;10.00;;;4.65;;
23561;SDS011;11959;49.418;8.728;2023-05-28T09:31:07;6.85;;;3.83;;
23561;SDS011;11959;49.418;8.728;2023-05-28T09:33:33;8.18;;;4.38;;
23561;SDS011;11959;49.418;8.728;2023-05-28T09:36:01;6.50;;;4.03;;
23561;SDS011;11959;49.418;8.728;2023-05-28T09:38:37;9.27;;;4.28;;
23561;SDS011;11959;49.418;8.728;2023-05-28T09:41:27;7.47;;;4.05;;
23561;SDS011;11959;49.418;8.728;2023-05-28T09:44:02;8.30;;;4.38;;
23561;SDS011;11959;49.418;8.728;2023-05-28T09:46:34;8.27;;;4.25;;
23561;SDS011;11959;49.418;8.728;2023-05-28T09:49:01;8.18;;;4.03;;
23561;SDS011;11959;49.418;8.728;2023-05-28T09:51:28;10.82;;;4.50;;
23561;SDS011;11959;49.418;8.728;2023-05-28T09:53:56;6.03;;;3.90;;
23561;SDS011;11959;49.418;8.728;2023-05-28T09:56:27;8.90;;;4.32;;
23561;SDS011;11959;49.418;8.728;2023-05-28T09:58:56;7.25;;;3.85;;
23561;SDS011;11959;49.418;8.728;2023-05-28T10:01:32;8.27;;;4.07;;
23561;SDS011;11959;49.418;8.728;2023-05-28T10:04:14;7.60;;;3.72;;
23561;SDS011;11959;49.418;8.728;2023-05-28T10:06:43;8.32;;;3.88;;
23561;SDS011;11959;49.418;8.728;2023-05-28T10:09:11;6.63;;;3.63;;
23561;SDS011;11959;49.418;8.728;2023-05-28T10:11:44;7.38;;;4.38;;
23561;SDS011;11959;49.418;8.728;2023-05-28T10:14:37;7.85;;;4.10;;
23561;SDS011;11959;49.418;8.728;2023-05-28T10:17:04;7.57;;;3.72;;
23561;SDS011;11959;49.418;8.728;2023-05-28T10:19:34;6.07;;;3.50;;
23561;SDS011;11959;49.418;8.728;2023-05-28T10:22:01;7.50;;;3.78;;
23561;SDS011;11959;49.418;8.728;2023-05-28T10:24:27;7.22;;;4.28;;
23561;SDS011;11959;49.418;8.728;2023-05-28T10:26:53;6.88;;;4.22;;
23561;SDS011;11959;49.418;8.728;2023-05-28T10:29:19;7.63;;;4.15;;
23561;SDS011;11959;49.418;8.728;2023-05-28T10:31:54;6.70;;;3.80;;
23561;SDS011;11959;49.418;8.728;2023-05-28T10:34:28;8.82;;;4.82;;
23561;SDS011;11959;49.418;8.728;2023-05-28T10:36:56;12.02;;;4.03;;
23561;SDS011;11959;49.418;8.728;2023-05-28T10:39:21;7.38;;;4.07;;
23561;SDS011;11959;49.418;8.728;2023-05-28T10:41:47;6.68;;;3.65;;
23561;SDS011;11959;49.418;8.728;2023-05-28T10:44:14;6.20;;;4.00;;
23561;SDS011;11959;49.418;8.728;2023-05-28T10:46:40;7.78;;;4.25;;
23561;SDS011;11959;49.418;8.728;2023-05-28T10:49:13;7.22;;;3.60;;
23561;SDS011;11959;49.418;8.728;2023-05-28T10:54:15;9.30;;;4.60;;
23561;SDS011;11959;49.418;8.728;2023-05-28T11:02:17;7.25;;;3.95;;
23561;SDS011;11959;49.418;8.728;2023-05-28T11:04:49;7.25;;;4.10;;
23561;SDS011;11959;49.418;8.728;2023-05-28T11:07:16;6.50;;;3.80;;
23561;SDS011;11959;49.418;8.728;2023-05-28T11:09:46;9.38;;;4.32;;
23561;SDS011;11959;49.418;8.728;2023-05-28T11:12:14;8.10;;;4.32;;
23561;SDS011;11959;49.418;8.728;2023-05-28T11:14:40;6.95;;;4.13;;
23561;SDS011;11959;49.418;8.728;2023-05-28T11:17:07;9.57;;;4.53;;
23561;SDS011;11959;49.418;8.728;2023-05-28T11:19:42;6.93;;;4.10;;
23561;SDS011;11959;49.418;8.728;2023-05-28T11:22:12;6.38;;;4.00;;
23561;SDS011;11959;49.418;8.728;2023-05-28T11:27:37;7.13;;;4.35;;
23561;SDS011;11959;49.418;8.728;2023-05-28T11:30:12;7.53;;;4.35;;
23561;SDS011;11959;49.418;8.728;2023-05-28T11:32:39;6.78;;;4.60;;
23561;SDS011;11959;49.418;8.728;2023-05-28T11:35:08;6.75;;;4.05;;
23561;SDS011;11959;49.418;8.728;2023-05-28T11:37:36;8.00;;;4.30;;
23561;SDS011;11959;49.418;8.728;2023-05-28T11:40:04;7.00;;;3.90;;
23561;SDS011;11959;49.418;8.728;2023-05-28T11:42:35;7.32;;;4.45;;
23561;SDS011;11959;49.418;8.728;2023-05-28T11:45:05;8.85;;;4.85;;
23561;SDS011;11959;49.418;8.728;2023-05-28T11:47:32;7.78;;;4.22;;
23561;SDS011;11959;49.418;8.728;2023-05-28T11:50:04;7.60;;;4.07;;
23561;SDS011;11959;49.418;8.728;2023-05-28T11:52:38;7.95;;;4.55;;
23561;SDS011;11959;49.418;8.728;2023-05-28T11:55:04;6.38;;;4.05;;
23561;SDS011;11959;49.418;8.728;2023-05-28T11:57:31;6.55;;;4.10;;
23561;SDS011;11959;49.418;8.728;2023-05-28T12:00:07;8.80;;;4.32;;
23561;SDS011;11959;49.418;8.728;2023-05-28T12:02:44;6.50;;;4.05;;
23561;SDS011;11959;49.418;8.728;2023-05-28T12:07:47;5.40;;;4.00;;
23561;SDS011;11959;49.418;8.728;2023-05-28T12:10:14;7.03;;;4.07;;
23561;SDS011;11959;49.418;8.728;2023-05-28T12:12:42;6.72;;;4.40;;
23561;SDS011;11959;49.418;8.728;2023-05-28T12:15:11;9.52;;;4.50;;
23561;SDS011;11959;49.418;8.728;2023-05-28T12:17:38;7.88;;;4.30;;
23561;SDS011;11959;49.418;8.728;2023-05-28T12:20:06;7.57;;;4.30;;
23561;SDS011;11959;49.418;8.728;2023-05-28T12:23:11;6.10;;;3.85;;
23561;SDS011;11959;49.418;8.728;2023-05-28T12:25:48;6.85;;;4.13;;
23561;SDS011;11959;49.418;8.728;2023-05-28T12:28:18;7.20;;;4.50;;
23561;SDS011;11959;49.418;8.728;2023-05-28T12:30:46;7.82;;;4.38;;
23561;SDS011;11959;49.418;8.728;2023-05-28T12:33:16;7.20;;;4.35;;
23561;SDS011;11959;49.418;8.728;2023-05-28T12:35:42;6.70;;;4.00;;
23561;SDS011;11959;49.418;8.728;2023-05-28T12:38:08;8.45;;;4.63;;
23561;SDS011;11959;49.418;8.728;2023-05-28T12:40:33;8.77;;;4.45;;
23561;SDS011;11959;49.418;8.728;2023-05-28T12:43:00;7.43;;;4.40;;
23561;SDS011;11959;49.418;8.728;2023-05-28T12:45:26;6.40;;;4.30;;
23561;SDS011;11959;49.418;8.728;2023-05-28T12:47:52;8.23;;;4.25;;
23561;SDS011;11959;49.418;8.728;2023-05-28T12:50:19;8.60;;;4.45;;
23561;SDS011;11959;49.418;8.728;2023-05-28T12:52:45;7.43;;;4.53;;
23561;SDS011;11959;49.418;8.728;2023-05-28T12:55:11;7.43;;;4.45;;
23561;SDS011;11959;49.418;8.728;2023-05-28T12:57:36;6.85;;;4.47;;
23561;SDS011;11959;49.418;8.728;2023-05-28T13:00:02;8.15;;;4.45;;
23561;SDS011;11959;49.418;8.728;2023-05-28T13:02:36;7.55;;;4.30;;
23561;SDS011;11959;49.418;8.728;2023-05-28T13:05:05;9.10;;;4.70;;
23561;SDS011;11959;49.418;8.728;2023-05-28T13:07:31;6.68;;;4.22;;
23561;SDS011;11959;49.418;8.728;2023-05-28T13:09:57;8.38;;;4.82;;
23561;SDS011;11959;49.418;8.728;2023-05-28T13:12:23;6.97;;;4.30;;
23561;SDS011;11959;49.418;8.728;2023-05-28T13:15:06;8.20;;;4.45;;
23561;SDS011;11959;49.418;8.728;2023-05-28T13:17:32;7.95;;;4.72;;
23561;SDS011;11959;49.418;8.728;2023-05-28T13:19:58;8.27;;;4.75;;
23561;SDS011;11959;49.418;8.728;2023-05-28T13:22:24;6.90;;;4.53;;
23561;SDS011;11959;49.418;8.728;2023-05-28T13:24:50;8.05;;;4.50;;
23561;SDS011;11959;49.418;8.728;2023-05-28T13:27:15;9.00;;;4.53;;
23561;SDS011;11959;49.418;8.728;2023-05-28T13:29:41;9.63;;;5.05;;
23561;SDS011;11959;49.418;8.728;2023-05-28T13:32:07;6.43;;;4.40;;
23561;SDS011;11959;49.418;8.728;2023-05-28T13:34:33;6.45;;;4.32;;
23561;SDS011;11959;49.418;8.728;2023-05-28T13:36:58;8.27;;;4.93;;
23561;SDS011;11959;49.418;8.728;2023-05-28T13:39:24;7.78;;;4.15;;
23561;SDS011;11959;49.418;8.728;2023-05-28T13:41:50;7.10;;;4.40;;
23561;SDS011;11959;49.418;8.728;2023-05-28T13:44:16;8.27;;;4.88;;
23561;SDS011;11959;49.418;8.728;2023-05-28T13:46:42;7.15;;;4.63;;
23561;SDS011;11959;49.418;8.728;2023-05-28T13:49:08;7.40;;;4.65;;
23561;SDS011;11959;49.418;8.728;2023-05-28T13:51:34;7.38;;;4.20;;
23561;SDS011;11959;49.418;8.728;2023-05-28T13:54:04;8.98;;;5.00;;
23561;SDS011;11959;49.418;8.728;2023-05-28T13:56:30;10.60;;;4.70;;
23561;SDS011;11959;49.418;8.728;2023-05-28T13:58:55;8.85;;;4.65;;
23561;SDS011;11959;49.418;8.728;2023-05-28T14:01:21;8.70;;;4.93;;
23561;SDS011;11959;49.418;8.728;2023-05-28T14:03:46;7.93;;;4.38;;
23561;SDS011;11959;49.418;8.728;2023-05-28T14:06:12;9.18;;;5.10;;
23561;SDS011;11959;49.418;8.728;2023-05-28T14:08:38;7.72;;;5.45;;
23561;SDS011;11959;49.418;8.728;2023-05-28T14:11:04;7.72;;;4.65;;
23561;SDS011;11959;49.418;8.728;2023-05-28T14:13:29;7.75;;;4.47;;
23561;SDS011;11959;49.418;8.728;2023-05-28T14:15:57;7.85;;;4.68;;
23561;SDS011;11959;49.418;8.728;2023-05-28T14:18:23;8.77;;;4.72;;
23561;SDS011;11959;49.418;8.728;2023-05-28T14:20:49;9.43;;;4.57;;
23561;SDS011;11959;49.418;8.728;2023-05-28T14:23:15;8.73;;;5.05;;
23561;SDS011;11959;49.418;8.728;2023-05-28T14:25:40;7.88;;;4.55;;
23561;SDS011;11959;49.418;8.728;2023-05-28T14:28:06;9.02;;;5.32;;
23561;SDS011;11959;49.418;8.728;2023-05-28T14:30:31;11.18;;;5.13;;
23561;SDS011;11959;49.418;8.728;2023-05-28T14:32:57;9.93;;;4.60;;
23561;SDS011;11959;49.418;8.728;2023-05-28T14:35:23;7.45;;;4.40;;
23561;SDS011;11959;49.418;8.728;2023-05-28T14:37:49;8.75;;;4.72;;
23561;SDS011;11959;49.418;8.728;2023-05-28T14:40:16;8.90;;;4.95;;
23561;SDS011;11959;49.418;8.728;2023-05-28T14:42:42;8.88;;;5.05;;
23561;SDS011;11959;49.418;8.728;2023-05-28T14:45:08;6.60;;;4.22;;
23561;SDS011;11959;49.418;8.728;2023-05-28T14:47:34;8.70;;;4.70;;
23561;SDS011;11959;49.418;8.728;2023-05-28T14:50:00;9.10;;;5.00;;
23561;SDS011;11959;49.418;8.728;2023-05-28T14:52:26;7.60;;;5.00;;
23561;SDS011;11959;49.418;8.728;2023-05-28T14:54:53;9.07;;;5.13;;
23561;SDS011;11959;49.418;8.728;2023-05-28T14:57:20;8.52;;;4.80;;
23561;SDS011;11959;49.418;8.728;2023-05-28T14:59:47;8.10;;;4.35;;